sensor_id;sensor_type;location;lat;lon;timestamp;P1;P2;P0
73146;PMS7003;61345;48.922;2.244;2022-07-10T00:01:14;3.00;1.50;1.00
73146;PMS7003;61345;48.922;2.244;2022-07-10T00:04:21;2.50;2.00;2.00
73146;PMS7003;61345;48.922;2.244;2022-07-10T00:07:15;1.00;1.00;1.00
73146;PMS7003;61345;48.922;2.244;2022-07-10T00:10:18;3.00;3.00;2.00
73146;PMS7003;61345;48.922;2.244;2022-07-10T00:13:09;3.00;1.75;1.25
73146;PMS7003;61345;48.922;2.244;2022-07-10T00:16:12;2.00;1.25;1.00
73146;PMS7003;61345;48.922;2.244;2022-07-10T00:19:07;2.00;2.00;1.00
73146;PMS7003;61345;48.922;2.244;2022-07-10T00:28:42;2.50;2.00;1.75
73146;PMS7003;61345;48.922;2.244;2022-07-10T00:31:20;3.00;3.00;2.00
73146;PMS7003;61345;48.922;2.244;2022-07-10T00:34:01;2.50;2.00;1.50
73146;PMS7003;61345;48.922;2.244;2022-07-10T00:36:49;3.00;1.50;1.00
73146;PMS7003;61345;48.922;2.244;2022-07-10T00:39:37;3.00;3.00;2.00
73146;PMS7003;61345;48.922;2.244;2022-07-10T00:42:33;1.75;1.75;1.00
73146;PMS7003;61345;48.922;2.244;2022-07-10T00:48:48;3.25;2.00;1.50
73146;PMS7003;61345;48.922;2.244;2022-07-10T00:51:32;3.75;2.00;1.25
73146;PMS7003;61345;48.922;2.244;2022-07-10T00:54:39;1.75;1.75;1.25
73146;PMS7003;61345;48.922;2.244;2022-07-10T00:57:22;1.25;1.25;1.00
73146;PMS7003;61345;48.922;2.244;2022-07-10T01:00:16;1.00;1.00;1.00
73146;PMS7003;61345;48.922;2.244;2022-07-10T01:02:51;2.50;2.50;2.00
73146;PMS7003;61345;48.922;2.244;2022-07-10T01:05:39;1.50;1.00;1.00
73146;PMS7003;61345;48.922;2.244;2022-07-10T01:08:44;2.00;2.00;2.00
73146;PMS7003;61345;48.922;2.244;2022-07-10T01:11:33;1.75;1.75;1.00
73146;PMS7003;61345;48.922;2.244;2022-07-10T01:14:46;2.75;2.50;2.00
73146;PMS7003;61345;48.922;2.244;2022-07-10T01:17:24;4.00;2.00;1.75
73146;PMS7003;61345;48.922;2.244;2022-07-10T01:20:31;2.75;2.75;2.00
73146;PMS7003;61345;48.922;2.244;2022-07-10T01:23:08;3.00;3.00;2.00
73146;PMS7003;61345;48.922;2.244;2022-07-10T01:32:47;2.00;2.00;2.00
73146;PMS7003;61345;48.922;2.244;2022-07-10T01:35:55;3.00;1.50;1.00
73146;PMS7003;61345;48.922;2.244;2022-07-10T01:38:59;3.00;3.00;2.25
73146;PMS7003;61345;48.922;2.244;2022-07-10T01:42:05;4.00;2.00;1.25
73146;PMS7003;61345;48.922;2.244;2022-07-10T01:45:12;2.00;2.00;1.25
73146;PMS7003;61345;48.922;2.244;2022-07-10T01:48:06;2.00;2.00;1.75
73146;PMS7003;61345;48.922;2.244;2022-07-10T01:51:07;2.75;2.00;2.00
73146;PMS7003;61345;48.922;2.244;2022-07-10T01:53:43;1.50;1.50;1.50
73146;PMS7003;61345;48.922;2.244;2022-07-10T01:59:44;10.00;3.50;2.00
73146;PMS7003;61345;48.922;2.244;2022-07-10T02:02:45;3.25;3.00;2.00
73146;PMS7003;61345;48.922;2.244;2022-07-10T02:05:52;2.50;2.50;1.75
73146;PMS7003;61345;48.922;2.244;2022-07-10T02:08:50;3.75;3.25;2.75
73146;PMS7003;61345;48.922;2.244;2022-07-10T02:11:38;2.25;2.00;2.00
73146;PMS7003;61345;48.922;2.244;2022-07-10T02:14:26;2.00;2.00;2.00
73146;PMS7003;61345;48.922;2.244;2022-07-10T02:17:49;2.25;2.25;2.00
73146;PMS7003;61345;48.922;2.244;2022-07-10T02:23:55;5.50;2.00;1.50
73146;PMS7003;61345;48.922;2.244;2022-07-10T02:29:28;4.00;2.75;2.25
73146;PMS7003;61345;48.922;2.244;2022-07-10T02:35:19;3.50;2.00;2.00
73146;PMS7003;61345;48.922;2.244;2022-07-10T02:37:49;4.50;2.50;1.75
73146;PMS7003;61345;48.922;2.244;2022-07-10T02:40:45;4.00;2.00;1.75
73146;PMS7003;61345;48.922;2.244;2022-07-10T02:43:31;2.75;2.00;2.00
73146;PMS7003;61345;48.922;2.244;2022-07-10T02:46:09;2.50;2.50;2.00
73146;PMS7003;61345;48.922;2.244;2022-07-10T02:49:02;2.25;2.00;2.00
73146;PMS7003;61345;48.922;2.244;2022-07-10T02:52:01;3.50;2.00;2.00
73146;PMS7003;61345;48.922;2.244;2022-07-10T03:01:16;2.50;2.50;2.00
73146;PMS7003;61345;48.922;2.244;2022-07-10T03:07:23;5.00;3.00;2.00
73146;PMS7003;61345;48.922;2.244;2022-07-10T03:10:33;5.00;1.75;1.75
73146;PMS7003;61345;48.922;2.244;2022-07-10T03:13:21;2.00;2.00;2.00
73146;PMS7003;61345;48.922;2.244;2022-07-10T03:16:00;2.50;2.00;2.00
73146;PMS7003;61345;48.922;2.244;2022-07-10T03:18:43;4.00;2.00;1.75
73146;PMS7003;61345;48.922;2.244;2022-07-10T03:27:16;3.75;2.00;2.00
73146;PMS7003;61345;48.922;2.244;2022-07-10T03:29:54;6.00;3.00;3.00
73146;PMS7003;61345;48.922;2.244;2022-07-10T03:35:38;1.75;1.75;1.75
73146;PMS7003;61345;48.922;2.244;2022-07-10T03:38:30;4.25;3.00;2.00
73146;PMS7003;61345;48.922;2.244;2022-07-10T03:41:03;2.50;1.50;1.25
73146;PMS7003;61345;48.922;2.244;2022-07-10T03:46:59;4.50;3.00;2.00
73146;PMS7003;61345;48.922;2.244;2022-07-10T03:50:25;4.00;3.00;2.25
73146;PMS7003;61345;48.922;2.244;2022-07-10T03:53:03;3.50;2.25;2.00
73146;PMS7003;61345;48.922;2.244;2022-07-10T03:55:37;3.00;2.50;2.00
73146;PMS7003;61345;48.922;2.244;2022-07-10T03:58:40;2.00;1.00;1.00
73146;PMS7003;61345;48.922;2.244;2022-07-10T04:01:28;3.00;2.00;2.00
73146;PMS7003;61345;48.922;2.244;2022-07-10T04:04:17;3.00;3.00;2.00
73146;PMS7003;61345;48.922;2.244;2022-07-10T04:06:59;2.00;2.00;1.25
73146;PMS7003;61345;48.922;2.244;2022-07-10T04:10:02;3.00;3.00;2.00
73146;PMS7003;61345;48.922;2.244;2022-07-10T04:12:55;3.00;2.50;2.00
73146;PMS7003;61345;48.922;2.244;2022-07-10T04:15:45;3.00;3.00;2.00
73146;PMS7003;61345;48.922;2.244;2022-07-10T04:18:46;4.00;3.00;2.25
73146;PMS7003;61345;48.922;2.244;2022-07-10T04:21:27;4.00;2.00;1.75
73146;PMS7003;61345;48.922;2.244;2022-07-10T04:24:19;4.75;3.00;2.00
73146;PMS7003;61345;48.922;2.244;2022-07-10T04:30:17;2.00;2.00;2.00
73146;PMS7003;61345;48.922;2.244;2022-07-10T04:33:11;4.50;3.00;3.00
73146;PMS7003;61345;48.922;2.244;2022-07-10T04:39:18;3.50;2.75;2.00
73146;PMS7003;61345;48.922;2.244;2022-07-10T04:42:21;5.25;4.00;3.00
73146;PMS7003;61345;48.922;2.244;2022-07-10T04:48:05;2.00;2.00;1.75
73146;PMS7003;61345;48.922;2.244;2022-07-10T04:51:16;2.00;2.00;1.75
73146;PMS7003;61345;48.922;2.244;2022-07-10T04:57:28;5.25;3.00;2.00
73146;PMS7003;61345;48.922;2.244;2022-07-10T05:00:12;2.25;2.00;1.25
73146;PMS7003;61345;48.922;2.244;2022-07-10T05:03:00;6.00;3.00;2.25
73146;PMS7003;61345;48.922;2.244;2022-07-10T05:05:53;2.00;2.00;1.75
73146;PMS7003;61345;48.922;2.244;2022-07-10T05:11:39;0.50;0.50;0.00
73146;PMS7003;61345;48.922;2.244;2022-07-10T05:17:32;3.75;3.50;2.00
73146;PMS7003;61345;48.922;2.244;2022-07-10T05:20:38;6.25;2.00;2.00
73146;PMS7003;61345;48.922;2.244;2022-07-10T05:23:16;2.75;2.25;2.00
73146;PMS7003;61345;48.922;2.244;2022-07-10T05:26:07;3.00;2.00;2.00
73146;PMS7003;61345;48.922;2.244;2022-07-10T05:32:12;2.00;2.00;2.00
73146;PMS7003;61345;48.922;2.244;2022-07-10T05:35:05;5.25;4.00;3.00
73146;PMS7003;61345;48.922;2.244;2022-07-10T05:37:36;2.00;2.00;2.00
73146;PMS7003;61345;48.922;2.244;2022-07-10T05:43:18;3.00;2.00;2.00
73146;PMS7003;61345;48.922;2.244;2022-07-10T05:45:53;3.00;2.00;2.00
73146;PMS7003;61345;48.922;2.244;2022-07-10T05:48:39;4.00;3.75;2.50
73146;PMS7003;61345;48.922;2.244;2022-07-10T05:54:25;5.50;3.00;2.00
73146;PMS7003;61345;48.922;2.244;2022-07-10T05:57:29;4.00;2.25;2.00
73146;PMS7003;61345;48.922;2.244;2022-07-10T05:59:59;10.25;3.25;2.25
73146;PMS7003;61345;48.922;2.244;2022-07-10T06:02:39;4.00;3.00;2.50
73146;PMS7003;61345;48.922;2.244;2022-07-10T06:05:09;2.00;2.00;1.00
73146;PMS7003;61345;48.922;2.244;2022-07-10T06:07:55;4.50;3.00;3.00
73146;PMS7003;61345;48.922;2.244;2022-07-10T06:13:29;5.00;3.50;3.00
73146;PMS7003;61345;48.922;2.244;2022-07-10T06:16:33;3.25;3.00;2.00
73146;PMS7003;61345;48.922;2.244;2022-07-10T06:19:11;4.00;1.75;0.50
73146;PMS7003;61345;48.922;2.244;2022-07-10T06:22:14;4.75;3.50;3.25
73146;PMS7003;61345;48.922;2.244;2022-07-10T06:25:15;3.25;3.00;2.00
73146;PMS7003;61345;48.922;2.244;2022-07-10T06:28:09;5.50;3.25;2.50
73146;PMS7003;61345;48.922;2.244;2022-07-10T06:30:47;3.00;3.00;2.00
73146;PMS7003;61345;48.922;2.244;2022-07-10T06:33:36;5.00;3.00;2.75
73146;PMS7003;61345;48.922;2.244;2022-07-10T06:36:42;4.00;2.00;2.00
73146;PMS7003;61345;48.922;2.244;2022-07-10T06:39:13;3.00;2.75;2.00
73146;PMS7003;61345;48.922;2.244;2022-07-10T06:41:40;3.00;2.75;2.50
73146;PMS7003;61345;48.922;2.244;2022-07-10T06:44:11;2.75;2.00;1.75
73146;PMS7003;61345;48.922;2.244;2022-07-10T06:46:39;3.00;3.00;3.00
73146;PMS7003;61345;48.922;2.244;2022-07-10T06:49:07;2.75;2.75;2.00
73146;PMS7003;61345;48.922;2.244;2022-07-10T06:51:36;2.75;2.75;2.00
73146;PMS7003;61345;48.922;2.244;2022-07-10T06:54:20;5.00;4.00;3.00
73146;PMS7003;61345;48.922;2.244;2022-07-10T06:56:58;3.00;2.25;1.75
73146;PMS7003;61345;48.922;2.244;2022-07-10T06:59:24;3.00;3.00;2.00
73146;PMS7003;61345;48.922;2.244;2022-07-10T07:02:02;2.75;2.75;2.50
73146;PMS7003;61345;48.922;2.244;2022-07-10T07:04:35;7.50;2.25;2.00
73146;PMS7003;61345;48.922;2.244;2022-07-10T07:07:11;4.25;2.50;2.00
73146;PMS7003;61345;48.922;2.244;2022-07-10T07:09:44;3.00;1.00;1.00
73146;PMS7003;61345;48.922;2.244;2022-07-10T07:12:20;3.50;3.00;2.25
73146;PMS7003;61345;48.922;2.244;2022-07-10T07:14:45;3.00;2.00;2.00
73146;PMS7003;61345;48.922;2.244;2022-07-10T07:17:18;4.75;2.50;2.00
73146;PMS7003;61345;48.922;2.244;2022-07-10T07:19:49;3.75;1.50;1.50
73146;PMS7003;61345;48.922;2.244;2022-07-10T07:22:33;2.50;2.00;1.50
73146;PMS7003;61345;48.922;2.244;2022-07-10T07:25:17;3.00;3.00;2.00
73146;PMS7003;61345;48.922;2.244;2022-07-10T07:27:43;2.00;2.00;2.00
73146;PMS7003;61345;48.922;2.244;2022-07-10T07:30:09;3.00;1.75;1.00
73146;PMS7003;61345;48.922;2.244;2022-07-10T07:32:36;1.00;1.00;1.00
73146;PMS7003;61345;48.922;2.244;2022-07-10T07:35:05;2.00;1.00;1.00
73146;PMS7003;61345;48.922;2.244;2022-07-10T07:40:38;3.00;2.00;2.00
73146;PMS7003;61345;48.922;2.244;2022-07-10T07:43:06;3.00;2.00;2.00
73146;PMS7003;61345;48.922;2.244;2022-07-10T07:45:33;3.00;3.00;2.00
73146;PMS7003;61345;48.922;2.244;2022-07-10T07:47:59;1.00;1.00;1.00
73146;PMS7003;61345;48.922;2.244;2022-07-10T07:50:25;3.50;2.00;1.00
73146;PMS7003;61345;48.922;2.244;2022-07-10T07:52:52;2.75;1.00;1.00
73146;PMS7003;61345;48.922;2.244;2022-07-10T07:55:19;3.50;2.00;2.00
73146;PMS7003;61345;48.922;2.244;2022-07-10T07:57:45;2.75;2.75;2.00
73146;PMS7003;61345;48.922;2.244;2022-07-10T08:00:11;2.00;2.00;1.00
73146;PMS7003;61345;48.922;2.244;2022-07-10T08:02:38;3.50;2.50;2.00
73146;PMS7003;61345;48.922;2.244;2022-07-10T08:05:04;4.00;2.00;2.00
73146;PMS7003;61345;48.922;2.244;2022-07-10T08:07:36;2.50;2.00;1.25
73146;PMS7003;61345;48.922;2.244;2022-07-10T08:10:08;3.00;2.00;1.75
73146;PMS7003;61345;48.922;2.244;2022-07-10T08:12:34;3.00;2.00;1.75
73146;PMS7003;61345;48.922;2.244;2022-07-10T08:14:59;1.00;1.00;1.00
73146;PMS7003;61345;48.922;2.244;2022-07-10T08:17:25;2.00;2.00;2.00
73146;PMS7003;61345;48.922;2.244;2022-07-10T08:19:51;1.00;1.00;1.00
73146;PMS7003;61345;48.922;2.244;2022-07-10T08:22:17;2.00;2.00;1.00
73146;PMS7003;61345;48.922;2.244;2022-07-10T08:24:42;3.00;3.00;2.00
73146;PMS7003;61345;48.922;2.244;2022-07-10T08:27:08;1.00;1.00;1.00
73146;PMS7003;61345;48.922;2.244;2022-07-10T08:29:33;2.00;1.75;1.00
73146;PMS7003;61345;48.922;2.244;2022-07-10T08:31:58;1.00;1.00;1.00
73146;PMS7003;61345;48.922;2.244;2022-07-10T08:34:24;1.75;1.75;1.00
73146;PMS7003;61345;48.922;2.244;2022-07-10T08:36:49;3.00;2.00;1.75
73146;PMS7003;61345;48.922;2.244;2022-07-10T08:39:15;1.75;1.75;1.00
73146;PMS7003;61345;48.922;2.244;2022-07-10T08:41:42;2.00;2.00;1.00
73146;PMS7003;61345;48.922;2.244;2022-07-10T08:44:08;2.00;1.00;1.00
73146;PMS7003;61345;48.922;2.244;2022-07-10T08:46:36;3.00;2.00;2.00
73146;PMS7003;61345;48.922;2.244;2022-07-10T08:49:05;1.75;1.75;1.00
73146;PMS7003;61345;48.922;2.244;2022-07-10T08:51:39;2.25;2.25;1.75
73146;PMS7003;61345;48.922;2.244;2022-07-10T08:54:06;3.00;3.00;2.00
73146;PMS7003;61345;48.922;2.244;2022-07-10T08:56:35;4.75;2.00;1.75
73146;PMS7003;61345;48.922;2.244;2022-07-10T08:59:02;3.00;3.00;2.00
73146;PMS7003;61345;48.922;2.244;2022-07-10T09:01:33;3.25;2.00;1.00
73146;PMS7003;61345;48.922;2.244;2022-07-10T09:03:59;1.00;1.00;1.00
73146;PMS7003;61345;48.922;2.244;2022-07-10T09:06:25;2.75;2.75;2.00
73146;PMS7003;61345;48.922;2.244;2022-07-10T09:09:00;4.50;2.00;2.00
73146;PMS7003;61345;48.922;2.244;2022-07-10T09:11:27;2.50;2.50;2.00
73146;PMS7003;61345;48.922;2.244;2022-07-10T09:13:56;2.00;2.00;1.00
73146;PMS7003;61345;48.922;2.244;2022-07-10T09:16:23;2.00;2.00;2.00
73146;PMS7003;61345;48.922;2.244;2022-07-10T09:21:48;3.75;2.25;2.00
73146;PMS7003;61345;48.922;2.244;2022-07-10T09:24:44;2.00;2.00;1.00
73146;PMS7003;61345;48.922;2.244;2022-07-10T09:27:12;2.00;2.00;2.00
73146;PMS7003;61345;48.922;2.244;2022-07-10T09:29:51;2.00;2.00;2.00
73146;PMS7003;61345;48.922;2.244;2022-07-10T09:32:20;3.50;2.50;2.00
73146;PMS7003;61345;48.922;2.244;2022-07-10T09:34:49;2.75;2.00;1.25
73146;PMS7003;61345;48.922;2.244;2022-07-10T09:37:38;2.00;2.00;1.00
73146;PMS7003;61345;48.922;2.244;2022-07-10T09:40:05;4.25;2.25;2.00
73146;PMS7003;61345;48.922;2.244;2022-07-10T09:42:31;1.00;1.00;1.00
73146;PMS7003;61345;48.922;2.244;2022-07-10T09:47:42;2.50;2.00;2.00
73146;PMS7003;61345;48.922;2.244;2022-07-10T09:50:41;1.75;1.50;1.50
73146;PMS7003;61345;48.922;2.244;2022-07-10T09:55:26;3.00;2.00;1.50
73146;PMS7003;61345;48.922;2.244;2022-07-10T09:57:55;3.00;3.00;2.75
73146;PMS7003;61345;48.922;2.244;2022-07-10T10:00:34;2.50;2.00;1.50
73146;PMS7003;61345;48.922;2.244;2022-07-10T10:03:05;1.50;1.50;1.50
73146;PMS7003;61345;48.922;2.244;2022-07-10T10:05:44;1.25;1.25;0.75
73146;PMS7003;61345;48.922;2.244;2022-07-10T10:08:12;2.50;1.75;1.00
73146;PMS7003;61345;48.922;2.244;2022-07-10T10:10:45;1.25;1.25;0.50
73146;PMS7003;61345;48.922;2.244;2022-07-10T10:13:12;2.00;2.00;2.00
73146;PMS7003;61345;48.922;2.244;2022-07-10T10:15:42;1.00;1.00;1.00
73146;PMS7003;61345;48.922;2.244;2022-07-10T10:18:08;2.25;0.25;0.25
73146;PMS7003;61345;48.922;2.244;2022-07-10T10:20:33;2.75;1.50;0.75
73146;PMS7003;61345;48.922;2.244;2022-07-10T10:23:02;0.50;0.50;0.50
73146;PMS7003;61345;48.922;2.244;2022-07-10T10:25:29;2.00;0.75;0.50
73146;PMS7003;61345;48.922;2.244;2022-07-10T10:27:58;4.75;2.00;1.50
73146;PMS7003;61345;48.922;2.244;2022-07-10T10:30:28;3.25;2.00;1.50
73146;PMS7003;61345;48.922;2.244;2022-07-10T10:32:54;2.75;1.75;1.75
73146;PMS7003;61345;48.922;2.244;2022-07-10T10:38:07;1.25;0.75;0.75
73146;PMS7003;61345;48.922;2.244;2022-07-10T10:40:33;2.00;2.00;1.00
73146;PMS7003;61345;48.922;2.244;2022-07-10T10:42:59;1.25;1.25;1.25
73146;PMS7003;61345;48.922;2.244;2022-07-10T10:45:41;2.00;2.00;1.00
73146;PMS7003;61345;48.922;2.244;2022-07-10T10:48:07;1.75;1.00;1.00
73146;PMS7003;61345;48.922;2.244;2022-07-10T10:53:11;2.00;2.00;1.75
73146;PMS7003;61345;48.922;2.244;2022-07-10T10:55:38;2.00;2.00;1.00
73146;PMS7003;61345;48.922;2.244;2022-07-10T10:58:24;1.25;1.25;1.00
73146;PMS7003;61345;48.922;2.244;2022-07-10T11:00:49;2.00;1.00;1.00
73146;PMS7003;61345;48.922;2.244;2022-07-10T11:03:15;0.50;0.50;0.25
73146;PMS7003;61345;48.922;2.244;2022-07-10T11:05:43;3.25;1.25;1.00
73146;PMS7003;61345;48.922;2.244;2022-07-10T11:08:09;2.75;2.00;2.00
73146;PMS7003;61345;48.922;2.244;2022-07-10T11:15:43;1.25;1.25;1.00
73146;PMS7003;61345;48.922;2.244;2022-07-10T11:18:11;1.50;1.50;1.00
73146;PMS7003;61345;48.922;2.244;2022-07-10T11:20:39;2.00;2.00;1.50
73146;PMS7003;61345;48.922;2.244;2022-07-10T11:25:52;2.00;1.00;1.00
73146;PMS7003;61345;48.922;2.244;2022-07-10T11:28:46;1.00;1.00;1.00
73146;PMS7003;61345;48.922;2.244;2022-07-10T11:31:13;3.00;2.00;1.50
73146;PMS7003;61345;48.922;2.244;2022-07-10T11:33:40;2.00;2.00;2.00
73146;PMS7003;61345;48.922;2.244;2022-07-10T11:36:11;0.25;0.25;0.25
73146;PMS7003;61345;48.922;2.244;2022-07-10T11:38:38;1.00;1.00;1.00
73146;PMS7003;61345;48.922;2.244;2022-07-10T11:41:04;1.25;0.25;0.25
73146;PMS7003;61345;48.922;2.244;2022-07-10T11:43:44;1.25;0.50;0.50
73146;PMS7003;61345;48.922;2.244;2022-07-10T11:46:14;0.00;0.00;0.00
73146;PMS7003;61345;48.922;2.244;2022-07-10T11:48:40;2.50;1.00;1.00
73146;PMS7003;61345;48.922;2.244;2022-07-10T11:56:47;0.00;0.00;0.00
73146;PMS7003;61345;48.922;2.244;2022-07-10T11:59:25;0.00;0.00;0.00
73146;PMS7003;61345;48.922;2.244;2022-07-10T12:01:53;1.25;1.00;0.00
73146;PMS7003;61345;48.922;2.244;2022-07-10T12:04:20;0.00;0.00;0.00
73146;PMS7003;61345;48.922;2.244;2022-07-10T12:06:50;0.00;0.00;0.00
73146;PMS7003;61345;48.922;2.244;2022-07-10T12:09:18;2.25;0.00;0.00
73146;PMS7003;61345;48.922;2.244;2022-07-10T12:12:06;1.00;0.00;0.00
73146;PMS7003;61345;48.922;2.244;2022-07-10T12:14:33;0.00;0.00;0.00
73146;PMS7003;61345;48.922;2.244;2022-07-10T12:17:00;0.00;0.00;0.00
73146;PMS7003;61345;48.922;2.244;2022-07-10T12:19:29;0.00;0.00;0.00
73146;PMS7003;61345;48.922;2.244;2022-07-10T12:21:58;1.00;0.00;0.00
73146;PMS7003;61345;48.922;2.244;2022-07-10T12:24:24;0.00;0.00;0.00
73146;PMS7003;61345;48.922;2.244;2022-07-10T12:26:50;2.00;0.00;0.00
73146;PMS7003;61345;48.922;2.244;2022-07-10T12:29:24;0.25;0.25;0.00
73146;PMS7003;61345;48.922;2.244;2022-07-10T12:31:53;0.75;0.50;0.50
73146;PMS7003;61345;48.922;2.244;2022-07-10T12:34:32;0.00;0.00;0.00
73146;PMS7003;61345;48.922;2.244;2022-07-10T12:37:06;0.00;0.00;0.00
73146;PMS7003;61345;48.922;2.244;2022-07-10T12:39:35;0.00;0.00;0.00
73146;PMS7003;61345;48.922;2.244;2022-07-10T12:42:03;0.00;0.00;0.00
73146;PMS7003;61345;48.922;2.244;2022-07-10T12:44:30;0.00;0.00;0.00
73146;PMS7003;61345;48.922;2.244;2022-07-10T12:47:00;0.25;0.00;0.00
73146;PMS7003;61345;48.922;2.244;2022-07-10T12:49:26;0.00;0.00;0.00
73146;PMS7003;61345;48.922;2.244;2022-07-10T12:51:51;0.00;0.00;0.00
73146;PMS7003;61345;48.922;2.244;2022-07-10T12:54:30;0.00;0.00;0.00
73146;PMS7003;61345;48.922;2.244;2022-07-10T12:56:58;0.00;0.00;0.00
73146;PMS7003;61345;48.922;2.244;2022-07-10T12:59:26;1.00;0.00;0.00
73146;PMS7003;61345;48.922;2.244;2022-07-10T13:01:52;0.75;0.00;0.00
73146;PMS7003;61345;48.922;2.244;2022-07-10T13:04:22;0.00;0.00;0.00
73146;PMS7003;61345;48.922;2.244;2022-07-10T13:06:51;0.75;0.75;0.00
73146;PMS7003;61345;48.922;2.244;2022-07-10T13:09:21;0.00;0.00;0.00
73146;PMS7003;61345;48.922;2.244;2022-07-10T13:11:51;0.00;0.00;0.00
73146;PMS7003;61345;48.922;2.244;2022-07-10T13:14:17;0.25;0.25;0.25
73146;PMS7003;61345;48.922;2.244;2022-07-10T13:16:42;1.00;0.50;0.00
73146;PMS7003;61345;48.922;2.244;2022-07-10T13:19:07;0.25;0.25;0.00
73146;PMS7003;61345;48.922;2.244;2022-07-10T13:21:33;0.25;0.00;0.00
73146;PMS7003;61345;48.922;2.244;2022-07-10T13:23:58;0.00;0.00;0.00
73146;PMS7003;61345;48.922;2.244;2022-07-10T13:26:23;0.00;0.00;0.00
73146;PMS7003;61345;48.922;2.244;2022-07-10T13:28:49;0.00;0.00;0.00
73146;PMS7003;61345;48.922;2.244;2022-07-10T13:31:14;0.00;0.00;0.00
73146;PMS7003;61345;48.922;2.244;2022-07-10T13:33:39;0.00;0.00;0.00
73146;PMS7003;61345;48.922;2.244;2022-07-10T13:36:05;0.00;0.00;0.00
73146;PMS7003;61345;48.922;2.244;2022-07-10T13:38:30;0.00;0.00;0.00
73146;PMS7003;61345;48.922;2.244;2022-07-10T13:40:57;2.00;0.25;0.00
73146;PMS7003;61345;48.922;2.244;2022-07-10T13:43:23;0.00;0.00;0.00
73146;PMS7003;61345;48.922;2.244;2022-07-10T13:45:53;0.00;0.00;0.00
73146;PMS7003;61345;48.922;2.244;2022-07-10T13:48:21;0.00;0.00;0.00
73146;PMS7003;61345;48.922;2.244;2022-07-10T13:50:46;0.00;0.00;0.00
73146;PMS7003;61345;48.922;2.244;2022-07-10T13:53:12;0.00;0.00;0.00
73146;PMS7003;61345;48.922;2.244;2022-07-10T13:55:37;1.00;0.00;0.00
73146;PMS7003;61345;48.922;2.244;2022-07-10T13:58:03;0.00;0.00;0.00
73146;PMS7003;61345;48.922;2.244;2022-07-10T14:00:29;2.50;0.00;0.00
73146;PMS7003;61345;48.922;2.244;2022-07-10T14:02:54;0.00;0.00;0.00
73146;PMS7003;61345;48.922;2.244;2022-07-10T14:05:23;0.00;0.00;0.00
73146;PMS7003;61345;48.922;2.244;2022-07-10T14:07:48;0.25;0.00;0.00
73146;PMS7003;61345;48.922;2.244;2022-07-10T14:10:14;0.00;0.00;0.00
73146;PMS7003;61345;48.922;2.244;2022-07-10T14:12:40;0.25;0.00;0.00
73146;PMS7003;61345;48.922;2.244;2022-07-10T14:15:05;0.25;0.25;0.00
73146;PMS7003;61345;48.922;2.244;2022-07-10T14:17:31;0.00;0.00;0.00
73146;PMS7003;61345;48.922;2.244;2022-07-10T14:19:56;0.00;0.00;0.00
73146;PMS7003;61345;48.922;2.244;2022-07-10T14:22:22;0.00;0.00;0.00
73146;PMS7003;61345;48.922;2.244;2022-07-10T14:24:48;0.00;0.00;0.00
73146;PMS7003;61345;48.922;2.244;2022-07-10T14:27:13;0.00;0.00;0.00
73146;PMS7003;61345;48.922;2.244;2022-07-10T14:29:39;0.00;0.00;0.00
73146;PMS7003;61345;48.922;2.244;2022-07-10T14:32:04;0.50;0.00;0.00
73146;PMS7003;61345;48.922;2.244;2022-07-10T14:34:30;0.00;0.00;0.00
73146;PMS7003;61345;48.922;2.244;2022-07-10T14:36:56;0.75;0.00;0.00
73146;PMS7003;61345;48.922;2.244;2022-07-10T14:39:21;0.00;0.00;0.00
73146;PMS7003;61345;48.922;2.244;2022-07-10T14:41:46;0.00;0.00;0.00
73146;PMS7003;61345;48.922;2.244;2022-07-10T14:44:12;0.00;0.00;0.00
73146;PMS7003;61345;48.922;2.244;2022-07-10T14:46:39;0.00;0.00;0.00
73146;PMS7003;61345;48.922;2.244;2022-07-10T14:49:04;0.00;0.00;0.00
73146;PMS7003;61345;48.922;2.244;2022-07-10T14:51:30;0.00;0.00;0.00
73146;PMS7003;61345;48.922;2.244;2022-07-10T14:53:55;0.00;0.00;0.00
73146;PMS7003;61345;48.922;2.244;2022-07-10T14:56:21;0.00;0.00;0.00
73146;PMS7003;61345;48.922;2.244;2022-07-10T14:58:47;0.00;0.00;0.00
73146;PMS7003;61345;48.922;2.244;2022-07-10T15:01:12;1.00;0.00;0.00
73146;PMS7003;61345;48.922;2.244;2022-07-10T15:03:39;0.00;0.00;0.00
73146;PMS7003;61345;48.922;2.244;2022-07-10T15:06:05;1.00;0.00;0.00
73146;PMS7003;61345;48.922;2.244;2022-07-10T15:08:30;0.00;0.00;0.00
73146;PMS7003;61345;48.922;2.244;2022-07-10T15:10:56;2.00;0.00;0.00
73146;PMS7003;61345;48.922;2.244;2022-07-10T15:13:23;0.00;0.00;0.00
73146;PMS7003;61345;48.922;2.244;2022-07-10T15:15:49;0.00;0.00;0.00
73146;PMS7003;61345;48.922;2.244;2022-07-10T15:18:16;0.00;0.00;0.00
73146;PMS7003;61345;48.922;2.244;2022-07-10T15:20:41;0.00;0.00;0.00
73146;PMS7003;61345;48.922;2.244;2022-07-10T15:23:07;0.25;0.00;0.00
73146;PMS7003;61345;48.922;2.244;2022-07-10T15:25:32;1.00;0.00;0.00
73146;PMS7003;61345;48.922;2.244;2022-07-10T15:27:57;0.00;0.00;0.00
73146;PMS7003;61345;48.922;2.244;2022-07-10T15:30:23;0.00;0.00;0.00
73146;PMS7003;61345;48.922;2.244;2022-07-10T15:32:48;0.00;0.00;0.00
73146;PMS7003;61345;48.922;2.244;2022-07-10T15:35:13;0.00;0.00;0.00
73146;PMS7003;61345;48.922;2.244;2022-07-10T15:37:39;5.50;5.00;4.50
73146;PMS7003;61345;48.922;2.244;2022-07-10T15:40:05;11.50;6.50;4.50
73146;PMS7003;61345;48.922;2.244;2022-07-10T15:42:31;2.00;1.00;1.00
73146;PMS7003;61345;48.922;2.244;2022-07-10T15:44:56;2.00;1.25;1.00
73146;PMS7003;61345;48.922;2.244;2022-07-10T15:47:22;1.00;0.00;0.00
73146;PMS7003;61345;48.922;2.244;2022-07-10T15:49:47;0.00;0.00;0.00
73146;PMS7003;61345;48.922;2.244;2022-07-10T15:52:13;0.00;0.00;0.00
73146;PMS7003;61345;48.922;2.244;2022-07-10T15:54:38;0.00;0.00;0.00
73146;PMS7003;61345;48.922;2.244;2022-07-10T15:57:03;0.00;0.00;0.00
73146;PMS7003;61345;48.922;2.244;2022-07-10T15:59:29;0.00;0.00;0.00
73146;PMS7003;61345;48.922;2.244;2022-07-10T16:01:56;0.00;0.00;0.00
73146;PMS7003;61345;48.922;2.244;2022-07-10T16:04:22;0.00;0.00;0.00
73146;PMS7003;61345;48.922;2.244;2022-07-10T16:06:49;1.00;0.00;0.00
73146;PMS7003;61345;48.922;2.244;2022-07-10T16:09:15;0.00;0.00;0.00
73146;PMS7003;61345;48.922;2.244;2022-07-10T16:11:40;0.00;0.00;0.00
73146;PMS7003;61345;48.922;2.244;2022-07-10T16:14:06;1.00;0.00;0.00
73146;PMS7003;61345;48.922;2.244;2022-07-10T16:16:32;0.00;0.00;0.00
73146;PMS7003;61345;48.922;2.244;2022-07-10T16:18:58;0.00;0.00;0.00
73146;PMS7003;61345;48.922;2.244;2022-07-10T16:21:23;0.00;0.00;0.00
73146;PMS7003;61345;48.922;2.244;2022-07-10T16:23:49;0.00;0.00;0.00
73146;PMS7003;61345;48.922;2.244;2022-07-10T16:26:16;0.00;0.00;0.00
73146;PMS7003;61345;48.922;2.244;2022-07-10T16:28:42;0.00;0.00;0.00
73146;PMS7003;61345;48.922;2.244;2022-07-10T16:31:07;0.75;0.00;0.00
73146;PMS7003;61345;48.922;2.244;2022-07-10T16:33:33;0.50;0.50;0.00
73146;PMS7003;61345;48.922;2.244;2022-07-10T16:35:58;0.00;0.00;0.00
73146;PMS7003;61345;48.922;2.244;2022-07-10T16:38:24;0.00;0.00;0.00
73146;PMS7003;61345;48.922;2.244;2022-07-10T16:40:49;0.00;0.00;0.00
73146;PMS7003;61345;48.922;2.244;2022-07-10T16:43:15;0.50;0.00;0.00
73146;PMS7003;61345;48.922;2.244;2022-07-10T16:45:41;0.00;0.00;0.00
73146;PMS7003;61345;48.922;2.244;2022-07-10T16:48:07;0.00;0.00;0.00
73146;PMS7003;61345;48.922;2.244;2022-07-10T16:50:33;0.00;0.00;0.00
73146;PMS7003;61345;48.922;2.244;2022-07-10T16:52:59;0.00;0.00;0.00
73146;PMS7003;61345;48.922;2.244;2022-07-10T16:55:25;0.00;0.00;0.00
73146;PMS7003;61345;48.922;2.244;2022-07-10T16:57:51;0.00;0.00;0.00
73146;PMS7003;61345;48.922;2.244;2022-07-10T17:00:16;0.00;0.00;0.00
73146;PMS7003;61345;48.922;2.244;2022-07-10T17:02:42;0.00;0.00;0.00